sensor_id;sensor_type;location;lat;lon;timestamp;temperature;humidity
35613;DHT22;22054;51.646;7.078;2023-02-28T00:00:34;-0.10;92.60
35613;DHT22;22054;51.646;7.078;2023-02-28T00:03:01;-0.20;79.60
35613;DHT22;22054;51.646;7.078;2023-02-28T00:05:27;-0.10;86.60
35613;DHT22;22054;51.646;7.078;2023-02-28T00:07:54;-0.10;85.90
35613;DHT22;22054;51.646;7.078;2023-02-28T00:10:22;-0.10;80.50
35613;DHT22;22054;51.646;7.078;2023-02-28T00:12:50;-0.20;64.10
35613;DHT22;22054;51.646;7.078;2023-02-28T00:15:17;-0.20;52.20
35613;DHT22;22054;51.646;7.078;2023-02-28T00:17:44;-0.20;56.20
35613;DHT22;22054;51.646;7.078;2023-02-28T00:20:11;-0.20;83.50
35613;DHT22;22054;51.646;7.078;2023-02-28T00:22:40;-0.20;54.20
35613;DHT22;22054;51.646;7.078;2023-02-28T00:25:10;-0.20;47.20
35613;DHT22;22054;51.646;7.078;2023-02-28T00:27:38;-0.20;54.40
35613;DHT22;22054;51.646;7.078;2023-02-28T00:30:06;-0.20;53.70
35613;DHT22;22054;51.646;7.078;2023-02-28T00:32:34;-0.20;52.50
35613;DHT22;22054;51.646;7.078;2023-02-28T00:35:00;-0.10;27.10
35613;DHT22;22054;51.646;7.078;2023-02-28T00:37:26;0.00;5.90
35613;DHT22;22054;51.646;7.078;2023-02-28T00:39:51;0.10;1.00
35613;DHT22;22054;51.646;7.078;2023-02-28T00:42:17;0.20;1.00
35613;DHT22;22054;51.646;7.078;2023-02-28T00:44:43;0.10;1.00
35613;DHT22;22054;51.646;7.078;2023-02-28T00:47:09;0.10;1.00
35613;DHT22;22054;51.646;7.078;2023-02-28T00:49:34;0.10;1.00
35613;DHT22;22054;51.646;7.078;2023-02-28T00:52:00;0.10;1.00
35613;DHT22;22054;51.646;7.078;2023-02-28T00:54:26;0.20;1.00
35613;DHT22;22054;51.646;7.078;2023-02-28T00:56:52;0.10;1.00
35613;DHT22;22054;51.646;7.078;2023-02-28T00:59:18;0.20;1.00
35613;DHT22;22054;51.646;7.078;2023-02-28T01:01:45;0.40;1.00
35613;DHT22;22054;51.646;7.078;2023-02-28T01:04:12;0.10;1.00
35613;DHT22;22054;51.646;7.078;2023-02-28T01:06:38;0.00;1.00
35613;DHT22;22054;51.646;7.078;2023-02-28T01:09:06;0.00;1.00
35613;DHT22;22054;51.646;7.078;2023-02-28T01:11:32;0.00;1.00
35613;DHT22;22054;51.646;7.078;2023-02-28T01:13:59;-0.10;1.00
35613;DHT22;22054;51.646;7.078;2023-02-28T01:16:26;-0.20;1.00
35613;DHT22;22054;51.646;7.078;2023-02-28T01:18:52;-0.20;1.00
35613;DHT22;22054;51.646;7.078;2023-02-28T01:21:19;-0.20;1.00
35613;DHT22;22054;51.646;7.078;2023-02-28T01:23:49;-0.30;1.00
35613;DHT22;22054;51.646;7.078;2023-02-28T01:26:20;-0.30;1.00
35613;DHT22;22054;51.646;7.078;2023-02-28T01:28:48;-0.40;1.00
35613;DHT22;22054;51.646;7.078;2023-02-28T01:31:15;-0.40;1.00
35613;DHT22;22054;51.646;7.078;2023-02-28T01:33:41;-0.40;1.00
35613;DHT22;22054;51.646;7.078;2023-02-28T01:36:14;-0.50;1.00
35613;DHT22;22054;51.646;7.078;2023-02-28T01:38:42;-0.60;1.00
35613;DHT22;22054;51.646;7.078;2023-02-28T01:41:17;-0.60;1.00
35613;DHT22;22054;51.646;7.078;2023-02-28T01:43:57;-0.70;1.00
35613;DHT22;22054;51.646;7.078;2023-02-28T01:46:24;-0.70;1.00
35613;DHT22;22054;51.646;7.078;2023-02-28T01:49:14;-0.80;2.90
35613;DHT22;22054;51.646;7.078;2023-02-28T01:51:45;-0.90;12.60
35613;DHT22;22054;51.646;7.078;2023-02-28T01:54:30;-0.90;21.60
35613;DHT22;22054;51.646;7.078;2023-02-28T02:02:19;-1.00;35.00
35613;DHT22;22054;51.646;7.078;2023-02-28T02:04:51;-1.00;35.90
35613;DHT22;22054;51.646;7.078;2023-02-28T02:07:18;-1.00;45.50
35613;DHT22;22054;51.646;7.078;2023-02-28T02:09:45;-1.00;46.00
35613;DHT22;22054;51.646;7.078;2023-02-28T02:12:24;-1.10;53.40
35613;DHT22;22054;51.646;7.078;2023-02-28T02:15:16;-1.10;63.20
35613;DHT22;22054;51.646;7.078;2023-02-28T02:17:46;-1.10;69.50
35613;DHT22;22054;51.646;7.078;2023-02-28T02:20:38;-1.10;70.00
35613;DHT22;22054;51.646;7.078;2023-02-28T02:23:33;-1.10;68.60
35613;DHT22;22054;51.646;7.078;2023-02-28T02:29:36;-1.30;74.70
35613;DHT22;22054;51.646;7.078;2023-02-28T02:44:11;-1.40;99.90
35613;DHT22;22054;51.646;7.078;2023-02-28T02:46:53;-1.50;99.00
35613;DHT22;22054;51.646;7.078;2023-02-28T02:49:35;-1.50;99.00
35613;DHT22;22054;51.646;7.078;2023-02-28T02:52:06;-1.50;99.90
35613;DHT22;22054;51.646;7.078;2023-02-28T02:54:40;-1.40;99.90
35613;DHT22;22054;51.646;7.078;2023-02-28T02:57:11;-1.50;99.90
35613;DHT22;22054;51.646;7.078;2023-02-28T02:59:43;-1.50;99.90
35613;DHT22;22054;51.646;7.078;2023-02-28T03:02:12;-1.50;99.90
35613;DHT22;22054;51.646;7.078;2023-02-28T03:04:53;-1.60;99.90
35613;DHT22;22054;51.646;7.078;2023-02-28T03:07:26;-1.50;99.90
35613;DHT22;22054;51.646;7.078;2023-02-28T03:09:53;-1.60;99.90
35613;DHT22;22054;51.646;7.078;2023-02-28T03:12:21;-1.50;99.90
35613;DHT22;22054;51.646;7.078;2023-02-28T03:20:07;-1.60;99.90
35613;DHT22;22054;51.646;7.078;2023-02-28T03:23:02;-1.70;99.90
35613;DHT22;22054;51.646;7.078;2023-02-28T03:26:01;-1.70;99.90
35613;DHT22;22054;51.646;7.078;2023-02-28T03:31:39;-1.70;99.90
35613;DHT22;22054;51.646;7.078;2023-02-28T03:34:32;-1.80;99.90
35613;DHT22;22054;51.646;7.078;2023-02-28T03:37:07;-1.80;99.90
35613;DHT22;22054;51.646;7.078;2023-02-28T03:42:09;-1.80;99.90
35613;DHT22;22054;51.646;7.078;2023-02-28T03:44:42;-1.80;99.90
35613;DHT22;22054;51.646;7.078;2023-02-28T03:47:31;-1.80;99.90
35613;DHT22;22054;51.646;7.078;2023-02-28T03:50:06;-1.80;99.90
35613;DHT22;22054;51.646;7.078;2023-02-28T03:52:47;-1.90;99.90
35613;DHT22;22054;51.646;7.078;2023-02-28T03:55:20;-1.90;99.90
35613;DHT22;22054;51.646;7.078;2023-02-28T03:58:01;-2.00;99.90
35613;DHT22;22054;51.646;7.078;2023-02-28T04:00:37;-2.00;99.90
35613;DHT22;22054;51.646;7.078;2023-02-28T04:03:05;-2.00;99.90
35613;DHT22;22054;51.646;7.078;2023-02-28T04:05:32;-2.00;99.90
35613;DHT22;22054;51.646;7.078;2023-02-28T04:08:06;-2.00;99.90
35613;DHT22;22054;51.646;7.078;2023-02-28T04:10:33;-2.00;99.90
35613;DHT22;22054;51.646;7.078;2023-02-28T04:12:59;-2.00;99.90
35613;DHT22;22054;51.646;7.078;2023-02-28T04:15:24;-2.10;99.90
35613;DHT22;22054;51.646;7.078;2023-02-28T04:17:52;-2.10;99.90
35613;DHT22;22054;51.646;7.078;2023-02-28T04:20:18;-2.10;99.90
35613;DHT22;22054;51.646;7.078;2023-02-28T04:22:44;-2.10;99.90
35613;DHT22;22054;51.646;7.078;2023-02-28T04:25:10;-2.10;99.90
35613;DHT22;22054;51.646;7.078;2023-02-28T04:27:35;-2.10;99.90
35613;DHT22;22054;51.646;7.078;2023-02-28T04:30:01;-2.10;99.90
35613;DHT22;22054;51.646;7.078;2023-02-28T04:32:27;-2.00;99.90
35613;DHT22;22054;51.646;7.078;2023-02-28T04:34:53;-2.20;99.90
35613;DHT22;22054;51.646;7.078;2023-02-28T04:37:19;-2.20;99.90
35613;DHT22;22054;51.646;7.078;2023-02-28T04:39:45;-2.20;99.90
35613;DHT22;22054;51.646;7.078;2023-02-28T04:42:12;-2.20;99.90
35613;DHT22;22054;51.646;7.078;2023-02-28T04:44:38;-2.30;99.90
35613;DHT22;22054;51.646;7.078;2023-02-28T04:47:04;-2.30;99.90
35613;DHT22;22054;51.646;7.078;2023-02-28T04:49:34;-2.30;99.90
35613;DHT22;22054;51.646;7.078;2023-02-28T04:52:03;-2.30;99.90
35613;DHT22;22054;51.646;7.078;2023-02-28T04:54:29;-2.20;99.90
35613;DHT22;22054;51.646;7.078;2023-02-28T04:56:57;-2.30;99.90
35613;DHT22;22054;51.646;7.078;2023-02-28T04:59:23;-2.30;99.90
35613;DHT22;22054;51.646;7.078;2023-02-28T05:01:52;-2.30;99.90
35613;DHT22;22054;51.646;7.078;2023-02-28T05:04:18;-2.40;99.90
35613;DHT22;22054;51.646;7.078;2023-02-28T05:06:44;-2.30;99.90
35613;DHT22;22054;51.646;7.078;2023-02-28T05:09:10;-2.30;99.90
35613;DHT22;22054;51.646;7.078;2023-02-28T05:11:39;-2.30;99.90
35613;DHT22;22054;51.646;7.078;2023-02-28T05:14:09;-2.40;99.90
35613;DHT22;22054;51.646;7.078;2023-02-28T05:16:36;-2.40;99.90
35613;DHT22;22054;51.646;7.078;2023-02-28T05:19:02;-2.40;99.90
35613;DHT22;22054;51.646;7.078;2023-02-28T05:21:36;-2.40;99.90
35613;DHT22;22054;51.646;7.078;2023-02-28T05:24:10;-2.40;99.90
35613;DHT22;22054;51.646;7.078;2023-02-28T05:26:39;-2.40;99.90
35613;DHT22;22054;51.646;7.078;2023-02-28T05:29:06;-2.40;99.90
35613;DHT22;22054;51.646;7.078;2023-02-28T05:31:32;-2.40;99.90
35613;DHT22;22054;51.646;7.078;2023-02-28T05:33:58;-2.40;99.90
35613;DHT22;22054;51.646;7.078;2023-02-28T05:36:24;-2.40;99.90
35613;DHT22;22054;51.646;7.078;2023-02-28T05:38:51;-2.40;99.90
35613;DHT22;22054;51.646;7.078;2023-02-28T05:41:18;-2.40;99.90
35613;DHT22;22054;51.646;7.078;2023-02-28T05:43:45;-2.40;99.90
35613;DHT22;22054;51.646;7.078;2023-02-28T05:46:12;-2.40;99.90
35613;DHT22;22054;51.646;7.078;2023-02-28T05:48:40;-2.40;99.90
35613;DHT22;22054;51.646;7.078;2023-02-28T05:51:08;-2.40;99.90
35613;DHT22;22054;51.646;7.078;2023-02-28T05:53:34;-2.50;99.90
35613;DHT22;22054;51.646;7.078;2023-02-28T05:56:00;-2.50;99.90
35613;DHT22;22054;51.646;7.078;2023-02-28T05:58:27;-2.50;99.90
35613;DHT22;22054;51.646;7.078;2023-02-28T06:00:59;-2.50;99.90
35613;DHT22;22054;51.646;7.078;2023-02-28T06:03:25;-2.50;99.90
35613;DHT22;22054;51.646;7.078;2023-02-28T06:05:51;-2.50;99.90
35613;DHT22;22054;51.646;7.078;2023-02-28T06:08:17;-2.60;99.90
35613;DHT22;22054;51.646;7.078;2023-02-28T06:10:43;-2.60;99.90
35613;DHT22;22054;51.646;7.078;2023-02-28T06:13:10;-2.60;99.90
35613;DHT22;22054;51.646;7.078;2023-02-28T06:15:38;-2.60;99.90
35613;DHT22;22054;51.646;7.078;2023-02-28T06:18:04;-2.70;99.90
35613;DHT22;22054;51.646;7.078;2023-02-28T06:20:30;-2.60;99.90
35613;DHT22;22054;51.646;7.078;2023-02-28T06:22:58;-2.60;99.90
35613;DHT22;22054;51.646;7.078;2023-02-28T06:25:26;-2.60;99.90
35613;DHT22;22054;51.646;7.078;2023-02-28T06:27:53;-2.60;99.90
35613;DHT22;22054;51.646;7.078;2023-02-28T06:30:19;-2.60;99.90
35613;DHT22;22054;51.646;7.078;2023-02-28T06:32:49;-2.40;99.90
35613;DHT22;22054;51.646;7.078;2023-02-28T06:35:15;-2.60;99.90
35613;DHT22;22054;51.646;7.078;2023-02-28T06:37:41;-2.60;99.90
35613;DHT22;22054;51.646;7.078;2023-02-28T06:40:08;-2.60;99.90
35613;DHT22;22054;51.646;7.078;2023-02-28T06:42:35;-2.50;99.90
35613;DHT22;22054;51.646;7.078;2023-02-28T06:45:01;-2.50;99.90
35613;DHT22;22054;51.646;7.078;2023-02-28T06:47:30;-2.50;99.90
35613;DHT22;22054;51.646;7.078;2023-02-28T06:49:57;-2.40;99.90
35613;DHT22;22054;51.646;7.078;2023-02-28T06:52:22;-2.40;99.90
35613;DHT22;22054;51.646;7.078;2023-02-28T06:54:48;-2.40;99.90
35613;DHT22;22054;51.646;7.078;2023-02-28T06:57:32;-2.30;99.90
35613;DHT22;22054;51.646;7.078;2023-02-28T07:00:07;-2.30;99.90
35613;DHT22;22054;51.646;7.078;2023-02-28T07:02:36;-2.20;99.90
35613;DHT22;22054;51.646;7.078;2023-02-28T07:05:08;-2.10;99.90
35613;DHT22;22054;51.646;7.078;2023-02-28T07:07:35;-2.00;99.90
35613;DHT22;22054;51.646;7.078;2023-02-28T07:10:04;-1.90;99.90
35613;DHT22;22054;51.646;7.078;2023-02-28T07:12:32;-1.90;94.80
35613;DHT22;22054;51.646;7.078;2023-02-28T07:14:57;-1.90;90.90
35613;DHT22;22054;51.646;7.078;2023-02-28T07:17:24;-1.80;81.30
35613;DHT22;22054;51.646;7.078;2023-02-28T07:19:49;-1.70;71.20
35613;DHT22;22054;51.646;7.078;2023-02-28T07:22:15;-1.60;65.00
35613;DHT22;22054;51.646;7.078;2023-02-28T07:24:41;-1.50;49.30
35613;DHT22;22054;51.646;7.078;2023-02-28T07:27:07;-1.40;34.90
35613;DHT22;22054;51.646;7.078;2023-02-28T07:29:33;-1.30;26.40
35613;DHT22;22054;51.646;7.078;2023-02-28T07:31:58;-1.30;21.00
35613;DHT22;22054;51.646;7.078;2023-02-28T07:34:24;-1.20;19.10
35613;DHT22;22054;51.646;7.078;2023-02-28T07:36:53;-1.00;9.80
35613;DHT22;22054;51.646;7.078;2023-02-28T07:39:26;-0.90;1.00
35613;DHT22;22054;51.646;7.078;2023-02-28T07:41:52;-0.80;1.00
35613;DHT22;22054;51.646;7.078;2023-02-28T07:44:20;-0.60;1.00
35613;DHT22;22054;51.646;7.078;2023-02-28T07:46:46;-0.50;1.00
35613;DHT22;22054;51.646;7.078;2023-02-28T07:49:14;-0.40;1.00
35613;DHT22;22054;51.646;7.078;2023-02-28T07:51:51;-0.10;1.00
35613;DHT22;22054;51.646;7.078;2023-02-28T07:54:17;0.10;1.00
35613;DHT22;22054;51.646;7.078;2023-02-28T07:56:43;0.10;1.00
35613;DHT22;22054;51.646;7.078;2023-02-28T07:59:09;0.20;1.00
35613;DHT22;22054;51.646;7.078;2023-02-28T08:01:35;0.30;1.00
35613;DHT22;22054;51.646;7.078;2023-02-28T08:04:00;0.50;1.00
35613;DHT22;22054;51.646;7.078;2023-02-28T08:06:26;0.60;1.00
35613;DHT22;22054;51.646;7.078;2023-02-28T08:08:53;0.90;99.90
35613;DHT22;22054;51.646;7.078;2023-02-28T08:11:22;1.20;99.90
35613;DHT22;22054;51.646;7.078;2023-02-28T08:13:47;1.20;1.60
35613;DHT22;22054;51.646;7.078;2023-02-28T08:16:14;1.30;1.00
35613;DHT22;22054;51.646;7.078;2023-02-28T08:18:49;1.40;1.00
35613;DHT22;22054;51.646;7.078;2023-02-28T08:21:16;1.50;99.90
35613;DHT22;22054;51.646;7.078;2023-02-28T08:23:43;1.60;99.90
35613;DHT22;22054;51.646;7.078;2023-02-28T08:26:08;1.70;1.00
35613;DHT22;22054;51.646;7.078;2023-02-28T08:28:34;1.80;1.00
35613;DHT22;22054;51.646;7.078;2023-02-28T08:31:00;2.00;99.90
35613;DHT22;22054;51.646;7.078;2023-02-28T08:33:27;2.10;1.00
35613;DHT22;22054;51.646;7.078;2023-02-28T08:35:56;2.30;1.00
35613;DHT22;22054;51.646;7.078;2023-02-28T08:38:23;2.50;1.00
35613;DHT22;22054;51.646;7.078;2023-02-28T08:40:49;2.60;1.00
35613;DHT22;22054;51.646;7.078;2023-02-28T08:43:15;2.60;1.00
35613;DHT22;22054;51.646;7.078;2023-02-28T08:45:41;2.80;99.90
35613;DHT22;22054;51.646;7.078;2023-02-28T08:48:07;3.00;1.00
35613;DHT22;22054;51.646;7.078;2023-02-28T08:50:33;3.00;99.90
35613;DHT22;22054;51.646;7.078;2023-02-28T08:52:58;3.10;99.90
35613;DHT22;22054;51.646;7.078;2023-02-28T08:55:25;3.20;1.00
35613;DHT22;22054;51.646;7.078;2023-02-28T08:57:50;3.40;1.00
35613;DHT22;22054;51.646;7.078;2023-02-28T09:00:18;3.40;1.00
35613;DHT22;22054;51.646;7.078;2023-02-28T09:02:44;3.50;99.90
35613;DHT22;22054;51.646;7.078;2023-02-28T09:05:09;3.70;1.00
35613;DHT22;22054;51.646;7.078;2023-02-28T09:07:35;3.70;1.00
35613;DHT22;22054;51.646;7.078;2023-02-28T09:10:01;3.90;99.90
35613;DHT22;22054;51.646;7.078;2023-02-28T09:12:27;3.90;99.90
35613;DHT22;22054;51.646;7.078;2023-02-28T09:14:58;4.00;99.90
35613;DHT22;22054;51.646;7.078;2023-02-28T09:17:24;4.10;99.90
35613;DHT22;22054;51.646;7.078;2023-02-28T09:19:49;4.20;99.90
35613;DHT22;22054;51.646;7.078;2023-02-28T09:22:16;4.30;57.80
35613;DHT22;22054;51.646;7.078;2023-02-28T09:24:41;4.40;99.90
35613;DHT22;22054;51.646;7.078;2023-02-28T09:27:07;4.60;1.00
35613;DHT22;22054;51.646;7.078;2023-02-28T09:29:34;4.70;99.90
35613;DHT22;22054;51.646;7.078;2023-02-28T09:32:00;4.80;99.90
35613;DHT22;22054;51.646;7.078;2023-02-28T09:34:27;5.00;1.00
35613;DHT22;22054;51.646;7.078;2023-02-28T09:36:56;5.10;1.00
35613;DHT22;22054;51.646;7.078;2023-02-28T09:39:22;5.10;1.00
35613;DHT22;22054;51.646;7.078;2023-02-28T09:41:51;5.10;1.00
35613;DHT22;22054;51.646;7.078;2023-02-28T09:44:43;5.20;1.00
35613;DHT22;22054;51.646;7.078;2023-02-28T09:47:38;5.20;1.00
35613;DHT22;22054;51.646;7.078;2023-02-28T09:50:34;5.60;1.00
35613;DHT22;22054;51.646;7.078;2023-02-28T09:56:04;6.80;1.00
35613;DHT22;22054;51.646;7.078;2023-02-28T09:58:47;7.60;1.00
35613;DHT22;22054;51.646;7.078;2023-02-28T10:01:25;8.70;1.00
35613;DHT22;22054;51.646;7.078;2023-02-28T10:04:00;9.30;1.00
35613;DHT22;22054;51.646;7.078;2023-02-28T10:06:34;9.60;1.00
35613;DHT22;22054;51.646;7.078;2023-02-28T10:09:18;9.90;1.00
35613;DHT22;22054;51.646;7.078;2023-02-28T10:11:49;10.70;1.00
35613;DHT22;22054;51.646;7.078;2023-02-28T10:14:31;11.40;1.00
35613;DHT22;22054;51.646;7.078;2023-02-28T10:20:14;12.20;1.00
35613;DHT22;22054;51.646;7.078;2023-02-28T10:23:00;13.00;1.00
35613;DHT22;22054;51.646;7.078;2023-02-28T10:25:35;13.80;1.00
35613;DHT22;22054;51.646;7.078;2023-02-28T10:28:10;13.80;1.00
35613;DHT22;22054;51.646;7.078;2023-02-28T10:30:41;13.80;1.00
35613;DHT22;22054;51.646;7.078;2023-02-28T10:33:28;14.60;1.00
35613;DHT22;22054;51.646;7.078;2023-02-28T10:35:56;14.30;1.00
35613;DHT22;22054;51.646;7.078;2023-02-28T10:38:37;12.50;1.00
35613;DHT22;22054;51.646;7.078;2023-02-28T10:41:13;11.70;1.00
35613;DHT22;22054;51.646;7.078;2023-02-28T10:43:41;12.00;1.00
35613;DHT22;22054;51.646;7.078;2023-02-28T10:48:39;13.10;1.00
35613;DHT22;22054;51.646;7.078;2023-02-28T10:51:13;12.90;1.00
35613;DHT22;22054;51.646;7.078;2023-02-28T10:58:56;9.70;99.90
35613;DHT22;22054;51.646;7.078;2023-02-28T11:01:40;9.20;1.00
35613;DHT22;22054;51.646;7.078;2023-02-28T11:04:19;9.10;1.00
35613;DHT22;22054;51.646;7.078;2023-02-28T11:07:00;9.60;1.00
35613;DHT22;22054;51.646;7.078;2023-02-28T11:09:48;10.00;1.00
35613;DHT22;22054;51.646;7.078;2023-02-28T11:15:03;9.90;1.00
35613;DHT22;22054;51.646;7.078;2023-02-28T11:17:32;9.80;1.00
35613;DHT22;22054;51.646;7.078;2023-02-28T11:20:01;10.50;1.00
35613;DHT22;22054;51.646;7.078;2023-02-28T11:22:37;11.20;1.00
35613;DHT22;22054;51.646;7.078;2023-02-28T11:25:16;11.40;1.00
35613;DHT22;22054;51.646;7.078;2023-02-28T11:27:51;12.10;1.00
35613;DHT22;22054;51.646;7.078;2023-02-28T11:30:29;12.20;99.90
35613;DHT22;22054;51.646;7.078;2023-02-28T11:32:59;12.20;99.90
35613;DHT22;22054;51.646;7.078;2023-02-28T11:35:38;12.00;99.90
35613;DHT22;22054;51.646;7.078;2023-02-28T11:38:09;11.40;99.90
35613;DHT22;22054;51.646;7.078;2023-02-28T11:40:46;12.30;99.90
35613;DHT22;22054;51.646;7.078;2023-02-28T11:43:30;13.60;99.90
35613;DHT22;22054;51.646;7.078;2023-02-28T11:46:32;14.50;99.90
35613;DHT22;22054;51.646;7.078;2023-02-28T11:57:49;15.30;99.90
35613;DHT22;22054;51.646;7.078;2023-02-28T12:00:38;16.00;99.90
35613;DHT22;22054;51.646;7.078;2023-02-28T12:18:03;18.10;99.90
35613;DHT22;22054;51.646;7.078;2023-02-28T12:31:52;17.70;99.90
35613;DHT22;22054;51.646;7.078;2023-02-28T12:34:37;17.90;99.90
35613;DHT22;22054;51.646;7.078;2023-02-28T12:37:10;17.80;99.90
35613;DHT22;22054;51.646;7.078;2023-02-28T12:39:44;17.60;99.90
35613;DHT22;22054;51.646;7.078;2023-02-28T12:42:39;18.60;99.90
35613;DHT22;22054;51.646;7.078;2023-02-28T12:45:19;17.60;99.90
35613;DHT22;22054;51.646;7.078;2023-02-28T12:47:52;17.70;99.90
35613;DHT22;22054;51.646;7.078;2023-02-28T12:50:28;17.80;99.90
35613;DHT22;22054;51.646;7.078;2023-02-28T12:56:07;17.10;99.90
35613;DHT22;22054;51.646;7.078;2023-02-28T12:58:47;16.70;99.90
35613;DHT22;22054;51.646;7.078;2023-02-28T13:08:04;17.20;99.90
35613;DHT22;22054;51.646;7.078;2023-02-28T13:10:40;17.40;99.90
35613;DHT22;22054;51.646;7.078;2023-02-28T13:13:21;16.90;99.90
35613;DHT22;22054;51.646;7.078;2023-02-28T13:16:09;17.90;99.90
35613;DHT22;22054;51.646;7.078;2023-02-28T13:18:46;18.30;99.90
35613;DHT22;22054;51.646;7.078;2023-02-28T13:21:24;18.80;99.90
35613;DHT22;22054;51.646;7.078;2023-02-28T13:24:02;19.70;99.90
35613;DHT22;22054;51.646;7.078;2023-02-28T13:34:35;18.20;99.90
35613;DHT22;22054;51.646;7.078;2023-02-28T13:39:55;18.20;99.90
35613;DHT22;22054;51.646;7.078;2023-02-28T13:42:36;18.60;99.90
35613;DHT22;22054;51.646;7.078;2023-02-28T13:45:25;18.90;99.90
35613;DHT22;22054;51.646;7.078;2023-02-28T13:48:01;19.40;99.90
35613;DHT22;22054;51.646;7.078;2023-02-28T13:50:36;19.70;99.90
35613;DHT22;22054;51.646;7.078;2023-02-28T13:58:41;20.60;99.90
35613;DHT22;22054;51.646;7.078;2023-02-28T14:01:33;20.00;99.90
35613;DHT22;22054;51.646;7.078;2023-02-28T14:07:28;19.80;99.90
35613;DHT22;22054;51.646;7.078;2023-02-28T14:10:06;19.80;99.90
35613;DHT22;22054;51.646;7.078;2023-02-28T14:18:15;18.50;99.90
35613;DHT22;22054;51.646;7.078;2023-02-28T14:20:45;18.60;99.90
35613;DHT22;22054;51.646;7.078;2023-02-28T14:32:21;17.10;99.90
35613;DHT22;22054;51.646;7.078;2023-02-28T14:35:31;16.30;99.90
35613;DHT22;22054;51.646;7.078;2023-02-28T14:38:07;15.70;99.90
35613;DHT22;22054;51.646;7.078;2023-02-28T14:40:40;16.10;99.90
35613;DHT22;22054;51.646;7.078;2023-02-28T14:43:22;16.60;99.90
35613;DHT22;22054;51.646;7.078;2023-02-28T14:45:55;17.00;99.90
35613;DHT22;22054;51.646;7.078;2023-02-28T14:48:23;17.40;99.90
35613;DHT22;22054;51.646;7.078;2023-02-28T14:50:52;17.20;99.90
35613;DHT22;22054;51.646;7.078;2023-02-28T14:53:25;17.60;99.90
35613;DHT22;22054;51.646;7.078;2023-02-28T14:55:52;17.50;99.90
35613;DHT22;22054;51.646;7.078;2023-02-28T15:00:58;18.50;99.90
35613;DHT22;22054;51.646;7.078;2023-02-28T15:03:32;19.10;99.90
35613;DHT22;22054;51.646;7.078;2023-02-28T15:06:02;19.80;99.90
35613;DHT22;22054;51.646;7.078;2023-02-28T15:08:33;20.00;99.90
35613;DHT22;22054;51.646;7.078;2023-02-28T15:11:04;19.60;99.90
35613;DHT22;22054;51.646;7.078;2023-02-28T15:13:50;20.00;99.90
35613;DHT22;22054;51.646;7.078;2023-02-28T15:16:21;19.50;99.90
35613;DHT22;22054;51.646;7.078;2023-02-28T15:18:54;19.10;99.90
35613;DHT22;22054;51.646;7.078;2023-02-28T15:21:32;18.50;99.90
35613;DHT22;22054;51.646;7.078;2023-02-28T15:24:10;17.60;99.90
35613;DHT22;22054;51.646;7.078;2023-02-28T15:26:44;15.50;99.90
35613;DHT22;22054;51.646;7.078;2023-02-28T15:29:22;13.20;99.90
35613;DHT22;22054;51.646;7.078;2023-02-28T15:31:55;11.50;99.90
35613;DHT22;22054;51.646;7.078;2023-02-28T15:40:10;9.00;99.90
35613;DHT22;22054;51.646;7.078;2023-02-28T15:42:36;8.60;99.90
35613;DHT22;22054;51.646;7.078;2023-02-28T15:45:02;8.30;99.90
35613;DHT22;22054;51.646;7.078;2023-02-28T15:47:29;8.30;99.90
35613;DHT22;22054;51.646;7.078;2023-02-28T15:50:00;8.80;99.90
35613;DHT22;22054;51.646;7.078;2023-02-28T15:52:44;9.80;99.90
35613;DHT22;22054;51.646;7.078;2023-02-28T15:55:19;9.60;99.90
35613;DHT22;22054;51.646;7.078;2023-02-28T15:57:49;9.00;99.90
35613;DHT22;22054;51.646;7.078;2023-02-28T16:00:21;8.50;99.90
35613;DHT22;22054;51.646;7.078;2023-02-28T16:02:48;8.10;1.00
35613;DHT22;22054;51.646;7.078;2023-02-28T16:05:18;8.00;1.00
35613;DHT22;22054;51.646;7.078;2023-02-28T16:07:54;8.70;1.00
35613;DHT22;22054;51.646;7.078;2023-02-28T16:10:21;9.50;99.90
35613;DHT22;22054;51.646;7.078;2023-02-28T16:12:52;9.40;1.00
35613;DHT22;22054;51.646;7.078;2023-02-28T16:15:22;9.00;99.90
35613;DHT22;22054;51.646;7.078;2023-02-28T16:17:51;8.60;1.00
35613;DHT22;22054;51.646;7.078;2023-02-28T16:20:24;8.90;1.00
35613;DHT22;22054;51.646;7.078;2023-02-28T16:22:55;9.40;99.90
35613;DHT22;22054;51.646;7.078;2023-02-28T16:25:35;10.10;99.90
35613;DHT22;22054;51.646;7.078;2023-02-28T16:28:03;10.80;99.90
35613;DHT22;22054;51.646;7.078;2023-02-28T16:30:29;11.40;99.90
35613;DHT22;22054;51.646;7.078;2023-02-28T16:32:58;11.70;99.90
35613;DHT22;22054;51.646;7.078;2023-02-28T16:35:24;11.70;99.90
35613;DHT22;22054;51.646;7.078;2023-02-28T16:37:51;11.30;99.90
35613;DHT22;22054;51.646;7.078;2023-02-28T16:40:21;10.40;99.90
35613;DHT22;22054;51.646;7.078;2023-02-28T16:42:53;9.40;99.90
35613;DHT22;22054;51.646;7.078;2023-02-28T16:45:23;8.60;99.90
35613;DHT22;22054;51.646;7.078;2023-02-28T16:47:50;8.00;99.90
35613;DHT22;22054;51.646;7.078;2023-02-28T16:50:28;7.50;1.00
35613;DHT22;22054;51.646;7.078;2023-02-28T16:52:55;7.00;1.00
35613;DHT22;22054;51.646;7.078;2023-02-28T16:55:23;6.70;1.00
35613;DHT22;22054;51.646;7.078;2023-02-28T16:57:55;6.40;1.00
35613;DHT22;22054;51.646;7.078;2023-02-28T17:00:26;6.20;99.90
35613;DHT22;22054;51.646;7.078;2023-02-28T17:02:53;6.00;99.90
35613;DHT22;22054;51.646;7.078;2023-02-28T17:05:20;5.90;99.90
35613;DHT22;22054;51.646;7.078;2023-02-28T17:07:47;5.70;1.00
35613;DHT22;22054;51.646;7.078;2023-02-28T17:10:31;5.60;1.00
35613;DHT22;22054;51.646;7.078;2023-02-28T17:12:57;5.40;1.00
35613;DHT22;22054;51.646;7.078;2023-02-28T17:15:22;5.40;1.00
35613;DHT22;22054;51.646;7.078;2023-02-28T17:17:49;5.30;99.90
35613;DHT22;22054;51.646;7.078;2023-02-28T17:20:16;5.20;74.60
35613;DHT22;22054;51.646;7.078;2023-02-28T17:22:53;5.00;55.50
35613;DHT22;22054;51.646;7.078;2023-02-28T17:25:20;5.00;99.90
35613;DHT22;22054;51.646;7.078;2023-02-28T17:27:46;4.90;1.00
35613;DHT22;22054;51.646;7.078;2023-02-28T17:32:41;4.60;49.00
35613;DHT22;22054;51.646;7.078;2023-02-28T17:35:07;4.60;1.00
35613;DHT22;22054;51.646;7.078;2023-02-28T17:37:33;4.50;1.00
35613;DHT22;22054;51.646;7.078;2023-02-28T17:40:00;4.40;99.90
35613;DHT22;22054;51.646;7.078;2023-02-28T17:42:25;4.40;1.00
35613;DHT22;22054;51.646;7.078;2023-02-28T17:44:51;4.20;1.00
35613;DHT22;22054;51.646;7.078;2023-02-28T17:47:17;4.00;1.00
35613;DHT22;22054;51.646;7.078;2023-02-28T17:52:18;3.90;99.90
35613;DHT22;22054;51.646;7.078;2023-02-28T17:54:44;3.70;1.00
35613;DHT22;22054;51.646;7.078;2023-02-28T17:57:14;3.60;1.00
35613;DHT22;22054;51.646;7.078;2023-02-28T17:59:40;3.60;98.90
35613;DHT22;22054;51.646;7.078;2023-02-28T18:02:09;3.60;55.90
35613;DHT22;22054;51.646;7.078;2023-02-28T18:04:37;3.40;1.00
35613;DHT22;22054;51.646;7.078;2023-02-28T18:07:02;3.40;1.00
35613;DHT22;22054;51.646;7.078;2023-02-28T18:09:29;3.20;99.90
35613;DHT22;22054;51.646;7.078;2023-02-28T18:11:55;3.20;1.00
35613;DHT22;22054;51.646;7.078;2023-02-28T18:14:23;3.20;1.00
35613;DHT22;22054;51.646;7.078;2023-02-28T18:16:52;3.10;1.00
35613;DHT22;22054;51.646;7.078;2023-02-28T18:19:19;3.10;1.00
35613;DHT22;22054;51.646;7.078;2023-02-28T18:21:49;3.00;1.00
35613;DHT22;22054;51.646;7.078;2023-02-28T18:24:19;3.00;99.90